Osgood, IN

12:48 PM EDT dna 30 September, 2016 (GMT -0400)
APRSWXNET | | Change Station

Elev 954 ft 39.07 °N, 85.25 °W | Updated 50 minutes ago

Overcast
Zamračené
60 °F
Feels Like 60 °F
N
3
Vietor meniaci sa Vietor from Juzný
Gusts 6.0 mph

Dnes
High -- | Low -- °F
--% Chance of Precip.
Yesterday
High -- | Low -- °F
Precip. -- in
Tlak 30.04 in
Viditeľnosť 10.0 mile
Oblačnost Ojedinelé mraky 1400 ft
Ojedinelé mraky 3000 ft
Zamračené 6000 ft
Rosný bod 58 °F
Vlhkosť 92%
Rainfall in
Výška snehu Not available.
7:36 AM 7:24 PM
Ubúdajúci mesiac, 4. fáza, 0% visible
METAR KBAK 301645Z 00000KT 10SM SCT014 SCT030 OVC060 17/15 A3004
Tlak 30.04 in
Viditeľnosť 10.0 mile
Oblačnost Ojedinelé mraky 1400 ft
Ojedinelé mraky 3000 ft
Zamračené 6000 ft
Rosný bod 58 °F
Vlhkosť 92%
Rainfall in
Výška snehu Not available.
7:36 AM 7:24 PM
Ubúdajúci mesiac, 4. fáza, 0% visible
METAR KBAK 301645Z 00000KT 10SM SCT014 SCT030 OVC060 17/15 A3004

10-Day Weather Forecast

Almanac

Astronómia

Sep. 30, 2016 Východ Západ
Aktuálny čas
Civil Twilight
Nautical Twilight
Astronomical Twilight
Mesiac
Length Of Visible Light
Dĺžka dňa
Tomorrow will be .
, % of the Moon is Illuminated

Today's Extremes

State Highs State Lows

Community

WunderPhotos

Upload Photos

1,942,748 photos uploaded!

WunderBlog® & News

Nearby

Air Quality

  Air Quality AQ Index Pollutant
Not available.

Výska snehu

Station Depth Nad. výška:

Aktivita zemetrasenia

Mesto Distance Mag. Time & Date
Minimum magnitude displayed is 2.5.

Coastal Water Temperatures

Miesto Teplota

Stations

Najbližšie meteo stanice

Station Location Temp Pocitová teplota Rosný bod Vlhkosť Vietor Precip. Elev Cas aktualizacie Type
                   

Watches & Warnings

There are currently no watches in effect.